createdAt,value
2019-02-15T00:03:56.049Z,15.97
2019-02-15T00:09:04.336Z,16.06
2019-02-15T00:14:12.374Z,16.75
2019-02-15T00:19:20.396Z,15.77
2019-02-15T00:24:28.421Z,16.88
2019-02-15T00:29:36.306Z,16.26
2019-02-15T00:34:44.364Z,15.97
2019-02-15T00:39:52.356Z,15.95
2019-02-15T00:45:00.404Z,15.78
2019-02-15T00:50:08.217Z,15.63
2019-02-15T00:55:16.516Z,16.15
2019-02-15T01:00:24.545Z,16.00
2019-02-15T01:05:32.623Z,15.28
2019-02-15T01:10:40.529Z,15.89
2019-02-15T01:15:48.628Z,14.94
2019-02-15T01:20:56.637Z,15.01
2019-02-15T01:26:04.661Z,14.57
2019-02-15T01:31:12.601Z,14.94
2019-02-15T01:36:20.541Z,14.62
2019-02-15T01:41:28.536Z,16.05
2019-02-15T01:46:36.449Z,14.35
2019-02-15T01:51:44.413Z,15.08
2019-02-15T01:56:52.370Z,14.71
2019-02-15T02:02:00.309Z,16.84
2019-02-15T02:07:08.205Z,15.68
2019-02-15T02:12:16.194Z,14.32
2019-02-15T02:17:24.389Z,14.25
2019-02-15T02:22:32.457Z,14.59
2019-02-15T02:27:40.704Z,14.16
2019-02-15T02:32:48.760Z,14.57
2019-02-15T02:37:57.012Z,15.25
2019-02-15T02:43:05.045Z,14.82
2019-02-15T02:48:13.364Z,15.65
2019-02-15T02:53:21.453Z,14.86
2019-02-15T02:58:29.701Z,14.98
2019-02-15T03:03:37.809Z,15.20
2019-02-15T03:08:46.020Z,14.90
2019-02-15T03:13:54.472Z,15.04
2019-02-15T03:19:02.896Z,15.45
2019-02-15T03:24:11.034Z,15.43
2019-02-15T03:29:19.244Z,15.67
2019-02-15T03:34:27.335Z,15.82
2019-02-15T03:39:35.549Z,16.33
2019-02-15T03:44:43.627Z,16.56
2019-02-15T03:49:51.890Z,16.12
2019-02-15T03:54:59.916Z,16.78
2019-02-15T04:00:08.180Z,16.32
2019-02-15T04:05:17.615Z,17.05
2019-02-15T04:10:26.086Z,17.51
2019-02-15T04:15:34.178Z,16.70
2019-02-15T04:20:42.300Z,18.21
2019-02-15T04:25:50.403Z,18.67
2019-02-15T04:30:58.644Z,20.34
2019-02-15T04:36:06.674Z,19.78
2019-02-15T04:41:14.793Z,18.93
2019-02-15T04:46:22.914Z,19.82
2019-02-15T04:51:31.443Z,18.53
2019-02-15T04:56:39.362Z,18.75
2019-02-15T05:01:47.684Z,19.89
2019-02-15T05:06:55.699Z,19.18
2019-02-15T05:12:04.017Z,18.68
2019-02-15T05:17:12.044Z,18.29
2019-02-15T05:22:20.353Z,18.83
2019-02-15T05:27:28.365Z,19.13
2019-02-15T05:32:36.713Z,18.05
2019-02-15T05:37:44.865Z,17.97
2019-02-15T05:42:53.081Z,17.89
2019-02-15T05:48:01.249Z,18.01
2019-02-15T05:53:09.488Z,17.81
2019-02-15T05:58:17.776Z,17.22
2019-02-15T06:03:26.141Z,18.35
2019-02-15T06:08:34.232Z,17.98
2019-02-15T06:13:42.424Z,17.45
2019-02-15T06:18:50.502Z,18.21
2019-02-15T06:23:58.688Z,19.30
2019-02-15T06:29:06.791Z,18.83
2019-02-15T06:34:14.876Z,20.31
2019-02-15T06:39:22.974Z,19.29
2019-02-15T06:44:31.276Z,19.14
2019-02-15T06:49:39.390Z,17.75
2019-02-15T06:54:47.557Z,20.50
2019-02-15T06:59:55.594Z,20.34
2019-02-15T07:05:03.840Z,18.39
2019-02-15T07:10:11.905Z,20.11
2019-02-15T07:15:20.488Z,20.16
2019-02-15T07:20:28.420Z,20.84
2019-02-15T07:25:36.662Z,18.20
2019-02-15T07:30:44.752Z,17.99
2019-02-15T07:35:53.487Z,21.31
2019-02-15T07:41:01.491Z,17.58
2019-02-15T07:46:09.920Z,16.92
2019-02-15T07:51:17.864Z,16.68
2019-02-15T07:56:26.177Z,16.55
2019-02-15T08:01:35.493Z,16.49
2019-02-15T08:06:43.680Z,15.76
2019-02-15T08:11:51.809Z,15.47
2019-02-15T08:17:00.702Z,16.34
2019-02-15T08:22:08.753Z,15.66
2019-02-15T08:27:17.129Z,15.71
2019-02-15T08:32:25.187Z,16.82
2019-02-15T08:37:33.472Z,15.97
2019-02-15T08:42:41.578Z,16.20
2019-02-15T08:47:49.751Z,17.24
2019-02-15T08:52:57.833Z,16.20
2019-02-15T08:58:06.053Z,15.18
2019-02-15T09:28:55.390Z,15.09
2019-02-15T09:54:36.365Z,15.68
2019-02-15T09:59:44.527Z,15.58
2019-02-15T10:04:52.521Z,14.54
2019-02-15T10:10:00.760Z,14.63
2019-02-15T10:15:08.863Z,14.78
2019-02-15T10:20:17.188Z,14.43
2019-02-15T10:25:25.319Z,16.03
2019-02-15T10:30:33.582Z,15.09
2019-02-15T10:35:41.661Z,14.36
2019-02-15T10:40:49.821Z,15.42
2019-02-15T10:45:57.891Z,14.98
2019-02-15T10:51:06.093Z,14.28
2019-02-15T10:56:14.225Z,14.92
2019-02-15T11:01:22.529Z,15.77
2019-02-15T11:06:30.389Z,14.10
2019-02-15T11:11:38.614Z,13.31
2019-02-15T11:16:47.340Z,15.11
2019-02-15T11:21:54.298Z,13.22
2019-02-15T11:27:02.421Z,17.26
2019-02-15T11:32:10.662Z,14.63
2019-02-15T11:37:18.808Z,15.64
2019-02-15T11:42:27.048Z,14.65
2019-02-15T11:47:35.207Z,14.36
2019-02-15T11:52:43.393Z,15.10
2019-02-15T11:57:51.757Z,13.03
2019-02-15T12:03:00.033Z,16.11
2019-02-15T12:08:08.107Z,14.01
2019-02-15T12:13:16.230Z,14.01
2019-02-15T12:18:24.340Z,14.88
2019-02-15T12:23:32.630Z,14.19
2019-02-15T12:28:41.705Z,12.14
2019-02-15T12:33:49.736Z,13.23
2019-02-15T12:38:57.820Z,11.57
2019-02-15T12:44:06.088Z,19.79
2019-02-15T12:49:14.201Z,12.60
2019-02-15T12:54:22.403Z,13.51
2019-02-15T12:59:30.513Z,12.99
2019-02-15T13:04:39.098Z,10.88
2019-02-15T13:09:47.193Z,9.10
2019-02-15T13:14:55.456Z,11.17
2019-02-15T13:20:03.897Z,10.50
2019-02-15T13:25:12.136Z,11.70
2019-02-15T13:30:20.638Z,10.46
2019-02-15T13:35:28.844Z,10.68
2019-02-15T13:40:36.941Z,8.19
2019-02-15T13:45:45.194Z,12.74
2019-02-15T13:50:53.705Z,9.41
2019-02-15T13:56:01.706Z,9.02
2019-02-15T14:01:09.762Z,5.41
2019-02-15T14:06:18.032Z,8.26
2019-02-15T14:11:26.133Z,9.98
2019-02-15T14:16:34.081Z,6.98
2019-02-15T14:21:44.504Z,6.17
2019-02-15T14:26:49.376Z,5.34
2019-02-15T14:31:57.225Z,5.76
2019-02-15T14:37:05.555Z,6.44
2019-02-15T14:42:13.645Z,7.53
2019-02-15T14:47:22.001Z,5.43
2019-02-15T14:52:30.366Z,4.36
2019-02-15T14:57:38.519Z,5.55
2019-02-15T15:02:46.601Z,5.48
2019-02-15T15:07:54.887Z,4.52
2019-02-15T15:13:03.121Z,4.55
2019-02-15T15:18:13.400Z,4.24
2019-02-15T15:23:18.971Z,3.79
2019-02-15T15:28:27.431Z,3.47
2019-02-15T15:33:35.660Z,3.55
2019-02-15T15:38:44.073Z,2.84
2019-02-15T15:43:52.393Z,3.25
2019-02-15T15:49:00.461Z,3.16
2019-02-15T15:54:08.635Z,3.42
2019-02-15T15:59:16.984Z,3.31
2019-02-15T16:04:25.493Z,3.79
2019-02-15T16:09:33.826Z,2.99
2019-02-15T16:14:41.978Z,4.02
2019-02-15T16:19:50.597Z,4.44
2019-02-15T16:24:58.576Z,4.63
2019-02-15T16:30:06.906Z,5.46
2019-02-15T16:35:15.138Z,5.11
2019-02-15T16:40:23.467Z,6.84
2019-02-15T16:45:31.796Z,4.77
2019-02-15T16:50:40.088Z,7.12
2019-02-15T16:55:48.174Z,6.16
2019-02-15T17:00:56.472Z,7.73
2019-02-15T17:06:04.903Z,7.52
2019-02-15T17:11:12.567Z,7.76
2019-02-15T17:16:20.813Z,7.10
2019-02-15T17:21:29.254Z,9.77
2019-02-15T17:26:37.706Z,7.74
2019-02-15T17:31:46.100Z,9.20
2019-02-15T17:36:54.565Z,7.59
2019-02-15T17:42:02.730Z,8.20
2019-02-15T17:47:10.935Z,7.80
2019-02-15T17:52:19.193Z,5.74
2019-02-15T17:57:27.436Z,6.99
2019-02-15T18:02:35.703Z,5.49
2019-02-15T18:07:43.799Z,5.14
2019-02-15T18:12:51.925Z,6.27
2019-02-15T18:18:00.033Z,8.21
2019-02-15T18:23:08.274Z,5.65
2019-02-15T18:28:16.347Z,5.92
2019-02-15T18:33:24.437Z,6.85
2019-02-15T18:38:32.590Z,6.44
2019-02-15T18:43:40.710Z,5.56
2019-02-15T18:48:48.901Z,5.71
2019-02-15T18:53:57.367Z,6.33
2019-02-15T18:59:05.512Z,5.47
2019-02-15T19:04:13.620Z,6.41
2019-02-15T19:09:21.721Z,7.11
2019-02-15T19:14:29.792Z,6.52
2019-02-15T19:19:37.907Z,8.26
2019-02-15T19:24:46.054Z,11.39
2019-02-15T19:29:54.232Z,7.50
2019-02-15T19:35:02.435Z,7.94
2019-02-15T19:40:10.428Z,7.88
2019-02-15T19:45:18.485Z,8.39
2019-02-15T19:50:26.846Z,8.01
2019-02-15T19:55:35.045Z,13.99
2019-02-15T20:00:43.109Z,7.00
2019-02-15T20:05:51.240Z,7.27
2019-02-15T20:10:59.389Z,6.42
2019-02-15T20:16:07.743Z,8.08
2019-02-15T20:21:15.880Z,7.57
2019-02-15T20:26:24.197Z,7.83
2019-02-15T20:31:32.318Z,6.76
2019-02-15T20:41:49.477Z,9.37
2019-02-15T20:46:57.639Z,8.67
2019-02-15T20:52:05.885Z,7.20
2019-02-15T20:57:14.229Z,6.77
2019-02-15T21:02:22.306Z,6.57
2019-02-15T21:07:30.445Z,7.27
2019-02-15T21:22:55.092Z,8.21
2019-02-15T21:48:37.589Z,6.57
2019-02-15T21:53:45.804Z,7.14
2019-02-15T22:04:02.096Z,7.55
2019-02-15T22:19:27.756Z,7.11
2019-02-15T22:29:44.572Z,7.09
2019-02-15T22:34:52.709Z,7.59
2019-02-15T22:40:00.893Z,8.62
2019-02-15T22:45:08.930Z,9.58
2019-02-15T22:55:25.493Z,9.02
2019-02-15T23:10:50.257Z,6.39
2019-02-15T23:15:58.439Z,6.64
2019-02-15T23:41:40.606Z,6.89
